LHX3VJ EDDM-EDDV
Flight info
| Callsign | LHX3VJ |
|---|---|
| Flight time | 0h 50m |
| Altitude | 30000 |
| Route | INPUD2S INPUD Y102 UPALA M726 LASTO M852 BIRKA/N0366F240 T803 GITEX GITEX1Z |
| Aircraft | A319/M-SDE2E3FGIJ1LORWXY/HB1 |
Departure
| Time | 2026-05-07 17:23 |
|---|---|
| Airport | Munich Airport (EDDM) |
Arrival
| Time | 2026-05-07 18:13 |
|---|---|
| Airport | Hannover Airport (EDDV) |
| Time | Latitude | Longitude | Altitude | Speed | Heading |
|---|---|---|---|---|---|
| 2026-05-07 16:46 | 48.35283 | 11.79779 | 1487 ft | 0 kts | 83° |
| 2026-05-07 16:49 | 48.35283 | 11.79778 | 1486 ft | 0 kts | 83° |
| 2026-05-07 17:05 | 48.35282 | 11.79771 | 1485 ft | 2 kts | 83° |
| 2026-05-07 17:05 | 48.35280 | 11.79747 | 1475 ft | 2 kts | 83° |
| 2026-05-07 17:06 | 48.35278 | 11.79722 | 1481 ft | 2 kts | 83° |
| 2026-05-07 17:06 | 48.35276 | 11.79698 | 1477 ft | 2 kts | 83° |
| 2026-05-07 17:06 | 48.35274 | 11.79674 | 1476 ft | 2 kts | 83° |
| 2026-05-07 17:06 | 48.35272 | 11.79649 | 1475 ft | 2 kts | 94° |
| 2026-05-07 17:07 | 48.35276 | 11.79625 | 1473 ft | 2 kts | 147° |
| 2026-05-07 17:07 | 48.35280 | 11.79621 | 1475 ft | 0 kts | 170° |
| 2026-05-07 17:09 | 48.35271 | 11.79623 | 1475 ft | 4 kts | 171° |
| 2026-05-07 17:09 | 48.35233 | 11.79616 | 1480 ft | 7 kts | 225° |
| 2026-05-07 17:10 | 48.35263 | 11.79557 | 1483 ft | 10 kts | 343° |
| 2026-05-07 17:10 | 48.35350 | 11.79541 | 1485 ft | 15 kts | 354° |
| 2026-05-07 17:10 | 48.35457 | 11.79522 | 1485 ft | 14 kts | 353° |
| 2026-05-07 17:10 | 48.35542 | 11.79507 | 1480 ft | 13 kts | 353° |
| 2026-05-07 17:11 | 48.35632 | 11.79503 | 1485 ft | 9 kts | 0° |
| 2026-05-07 17:11 | 48.35695 | 11.79492 | 1485 ft | 10 kts | 352° |
| 2026-05-07 17:11 | 48.35763 | 11.79469 | 1481 ft | 10 kts | 347° |
| 2026-05-07 17:11 | 48.35836 | 11.79456 | 1479 ft | 11 kts | 354° |
| 2026-05-07 17:12 | 48.35900 | 11.79399 | 1480 ft | 11 kts | 303° |
| 2026-05-07 17:12 | 48.35963 | 11.79339 | 1486 ft | 11 kts | 352° |
| 2026-05-07 17:12 | 48.35987 | 11.79335 | 1480 ft | 0 kts | 353° |
| 2026-05-07 17:14 | 48.35993 | 11.79334 | 1479 ft | 2 kts | 353° |
| 2026-05-07 17:14 | 48.36021 | 11.79328 | 1485 ft | 6 kts | 353° |
| 2026-05-07 17:15 | 48.36075 | 11.79318 | 1485 ft | 10 kts | 353° |
| 2026-05-07 17:15 | 48.36155 | 11.79306 | 1477 ft | 14 kts | 1° |
| 2026-05-07 17:15 | 48.36211 | 11.79443 | 1485 ft | 20 kts | 83° |
| 2026-05-07 17:15 | 48.36230 | 11.79687 | 1485 ft | 26 kts | 83° |
| 2026-05-07 17:16 | 48.36250 | 11.79952 | 1485 ft | 26 kts | 83° |
| 2026-05-07 17:16 | 48.36271 | 11.80220 | 1485 ft | 26 kts | 83° |
| 2026-05-07 17:16 | 48.36292 | 11.80489 | 1478 ft | 26 kts | 83° |
| 2026-05-07 17:16 | 48.36312 | 11.80757 | 1485 ft | 26 kts | 83° |
| 2026-05-07 17:17 | 48.36333 | 11.81024 | 1485 ft | 26 kts | 83° |
| 2026-05-07 17:17 | 48.36353 | 11.81292 | 1473 ft | 26 kts | 83° |
| 2026-05-07 17:17 | 48.36374 | 11.81559 | 1482 ft | 26 kts | 83° |
| 2026-05-07 17:17 | 48.36393 | 11.81798 | 1485 ft | 20 kts | 83° |
| 2026-05-07 17:18 | 48.36399 | 11.81873 | 1485 ft | 6 kts | 83° |
| 2026-05-07 17:18 | 48.36396 | 11.81918 | 1485 ft | 7 kts | 97° |
| 2026-05-07 17:18 | 48.36410 | 11.81984 | 1475 ft | 7 kts | 51° |
| 2026-05-07 17:18 | 48.36454 | 11.82002 | 1485 ft | 7 kts | 4° |
| 2026-05-07 17:19 | 48.36506 | 11.81993 | 1485 ft | 8 kts | 353° |
| 2026-05-07 17:19 | 48.36563 | 11.81983 | 1485 ft | 0 kts | 353° |
| 2026-05-07 17:21 | 48.36571 | 11.81981 | 1479 ft | 4 kts | 353° |
| 2026-05-07 17:21 | 48.36648 | 11.81941 | 1485 ft | 14 kts | 314° |
| 2026-05-07 17:22 | 48.36667 | 11.81842 | 1485 ft | 17 kts | 266° |
| 2026-05-07 17:22 | 48.36647 | 11.81564 | 1485 ft | 48 kts | 263° |
| 2026-05-07 17:22 | 48.36579 | 11.80664 | 1477 ft | 122 kts | 264° |
| 2026-05-07 17:22 | 48.36488 | 11.79283 | 1847 ft | 132 kts | 266° |
| 2026-05-07 17:23 | 48.36386 | 11.77895 | 2551 ft | 133 kts | 265° |
| 2026-05-07 17:23 | 48.36255 | 11.76617 | 3360 ft | 117 kts | 263° |
| 2026-05-07 17:23 | 48.36136 | 11.75345 | 3593 ft | 133 kts | 265° |
| 2026-05-07 17:23 | 48.36031 | 11.73851 | 3841 ft | 152 kts | 265° |
| 2026-05-07 17:24 | 48.35920 | 11.72180 | 4160 ft | 170 kts | 265° |
| 2026-05-07 17:24 | 48.35789 | 11.70266 | 4412 ft | 197 kts | 264° |
| 2026-05-07 17:24 | 48.35732 | 11.68089 | 4693 ft | 223 kts | 281° |
| 2026-05-07 17:24 | 48.36593 | 11.66043 | 5135 ft | 248 kts | 319° |
| 2026-05-07 17:25 | 48.38204 | 11.64859 | 5674 ft | 271 kts | 341° |
| 2026-05-07 17:25 | 48.40081 | 11.64218 | 6604 ft | 281 kts | 349° |
| 2026-05-07 17:25 | 48.42033 | 11.63759 | 7537 ft | 287 kts | 349° |
| 2026-05-07 17:25 | 48.44000 | 11.63160 | 8495 ft | 290 kts | 341° |
| 2026-05-07 17:26 | 48.45918 | 11.62227 | 9563 ft | 289 kts | 338° |
| 2026-05-07 17:26 | 48.47843 | 11.61204 | 10338 ft | 300 kts | 338° |
| 2026-05-07 17:26 | 48.49888 | 11.60097 | 10698 ft | 324 kts | 337° |
| 2026-05-07 17:26 | 48.52084 | 11.58912 | 11089 ft | 344 kts | 338° |
| 2026-05-07 17:27 | 48.54365 | 11.57696 | 11836 ft | 351 kts | 338° |
| 2026-05-07 17:27 | 48.56687 | 11.56473 | 12668 ft | 355 kts | 338° |
| 2026-05-07 17:27 | 48.59034 | 11.55245 | 13497 ft | 360 kts | 338° |
| 2026-05-07 17:27 | 48.61381 | 11.54020 | 14252 ft | 363 kts | 338° |
| 2026-05-07 17:28 | 48.63779 | 11.52762 | 14985 ft | 367 kts | 338° |
| 2026-05-07 17:28 | 48.66203 | 11.51488 | 15720 ft | 370 kts | 338° |
| 2026-05-07 17:28 | 48.68650 | 11.50203 | 16481 ft | 374 kts | 338° |
| 2026-05-07 17:28 | 48.71115 | 11.48905 | 17205 ft | 377 kts | 338° |
| 2026-05-07 17:29 | 48.73606 | 11.47590 | 17934 ft | 381 kts | 338° |
| 2026-05-07 17:29 | 48.76119 | 11.46264 | 18605 ft | 384 kts | 338° |
| 2026-05-07 17:29 | 48.78659 | 11.44927 | 19147 ft | 388 kts | 338° |
| 2026-05-07 17:29 | 48.81218 | 11.43578 | 19777 ft | 391 kts | 338° |
| 2026-05-07 17:30 | 48.83763 | 11.42233 | 20408 ft | 394 kts | 338° |
| 2026-05-07 17:30 | 48.86368 | 11.40859 | 21022 ft | 398 kts | 338° |
| 2026-05-07 17:30 | 48.88996 | 11.39475 | 21640 ft | 402 kts | 338° |
| 2026-05-07 17:30 | 48.91647 | 11.38073 | 22240 ft | 405 kts | 338° |
| 2026-05-07 17:31 | 48.94316 | 11.36654 | 22824 ft | 409 kts | 338° |
| 2026-05-07 17:31 | 48.97024 | 11.35211 | 23381 ft | 412 kts | 338° |
| 2026-05-07 17:31 | 48.99740 | 11.33763 | 23886 ft | 416 kts | 338° |
| 2026-05-07 17:31 | 49.02467 | 11.32306 | 24343 ft | 419 kts | 338° |
| 2026-05-07 17:32 | 49.05228 | 11.30832 | 24794 ft | 422 kts | 338° |
| 2026-05-07 17:32 | 49.07969 | 11.29370 | 25240 ft | 425 kts | 338° |
| 2026-05-07 17:32 | 49.10771 | 11.27876 | 25674 ft | 427 kts | 338° |
| 2026-05-07 17:32 | 49.13587 | 11.26372 | 26126 ft | 430 kts | 338° |
| 2026-05-07 17:33 | 49.16423 | 11.24851 | 26570 ft | 433 kts | 337° |
| 2026-05-07 17:33 | 49.19287 | 11.23359 | 27007 ft | 438 kts | 341° |
| 2026-05-07 17:33 | 49.22289 | 11.22397 | 27440 ft | 444 kts | 350° |
| 2026-05-07 17:33 | 49.25398 | 11.22155 | 27873 ft | 450 kts | 358° |
| 2026-05-07 17:34 | 49.28539 | 11.22188 | 28306 ft | 453 kts | 358° |
| 2026-05-07 17:34 | 49.31658 | 11.22218 | 28708 ft | 456 kts | 358° |
| 2026-05-07 17:34 | 49.34835 | 11.22245 | 29118 ft | 458 kts | 358° |
| 2026-05-07 17:34 | 49.38033 | 11.22273 | 29513 ft | 461 kts | 357° |
| 2026-05-07 17:35 | 49.41255 | 11.22298 | 29901 ft | 464 kts | 357° |
| 2026-05-07 17:35 | 49.44485 | 11.22324 | 30045 ft | 462 kts | 357° |
| 2026-05-07 17:35 | 49.50826 | 11.22388 | 30056 ft | 452 kts | 357° |
| 2026-05-07 17:36 | 49.57065 | 11.22445 | 30058 ft | 451 kts | 357° |
| 2026-05-07 17:36 | 49.63333 | 11.22451 | 30057 ft | 450 kts | 357° |
| 2026-05-07 17:37 | 49.69589 | 11.22447 | 30053 ft | 449 kts | 357° |
| 2026-05-07 17:37 | 49.75841 | 11.22456 | 30057 ft | 449 kts | 358° |
| 2026-05-07 17:38 | 49.82081 | 11.22481 | 30053 ft | 448 kts | 358° |
| 2026-05-07 17:38 | 49.88311 | 11.22518 | 30053 ft | 447 kts | 358° |
| 2026-05-07 17:39 | 49.94493 | 11.22558 | 30052 ft | 447 kts | 358° |
| 2026-05-07 17:39 | 50.00702 | 11.22590 | 30054 ft | 446 kts | 358° |
| 2026-05-07 17:40 | 50.06897 | 11.22630 | 30053 ft | 445 kts | 358° |
| 2026-05-07 17:40 | 50.13077 | 11.22678 | 30054 ft | 444 kts | 359° |
| 2026-05-07 17:41 | 50.19244 | 11.22719 | 30056 ft | 443 kts | 358° |
| 2026-05-07 17:41 | 50.25363 | 11.22747 | 30056 ft | 442 kts | 359° |
| 2026-05-07 17:42 | 50.31506 | 11.22779 | 30059 ft | 441 kts | 359° |
| 2026-05-07 17:42 | 50.37629 | 11.22578 | 30060 ft | 439 kts | 353° |
| 2026-05-07 17:43 | 50.43713 | 11.21658 | 30055 ft | 439 kts | 353° |
| 2026-05-07 17:43 | 50.49763 | 11.20487 | 30059 ft | 438 kts | 349° |
| 2026-05-07 17:44 | 50.55748 | 11.18710 | 30062 ft | 438 kts | 347° |
| 2026-05-07 17:44 | 50.61677 | 11.16836 | 30053 ft | 437 kts | 347° |
| 2026-05-07 17:45 | 50.67651 | 11.14978 | 30061 ft | 437 kts | 348° |
| 2026-05-07 17:45 | 50.73606 | 11.13158 | 30062 ft | 436 kts | 348° |
| 2026-05-07 17:46 | 50.76589 | 11.12249 | 29760 ft | 437 kts | 348° |
| 2026-05-07 17:46 | 50.79574 | 11.11336 | 29339 ft | 437 kts | 348° |
| 2026-05-07 17:46 | 50.82553 | 11.10420 | 28910 ft | 434 kts | 349° |
| 2026-05-07 17:46 | 50.85464 | 11.09521 | 28498 ft | 431 kts | 348° |
| 2026-05-07 17:47 | 50.88443 | 11.08602 | 28083 ft | 431 kts | 348° |
| 2026-05-07 17:47 | 50.91355 | 11.07707 | 27681 ft | 431 kts | 348° |
| 2026-05-07 17:47 | 50.94292 | 11.06801 | 27276 ft | 429 kts | 348° |
| 2026-05-07 17:47 | 50.97217 | 11.05893 | 26887 ft | 427 kts | 348° |
| 2026-05-07 17:48 | 51.00125 | 11.04990 | 26497 ft | 425 kts | 348° |
| 2026-05-07 17:48 | 51.03018 | 11.04093 | 26116 ft | 423 kts | 348° |
| 2026-05-07 17:48 | 51.05899 | 11.03199 | 25731 ft | 421 kts | 348° |
| 2026-05-07 17:48 | 51.08762 | 11.02309 | 25360 ft | 418 kts | 348° |
| 2026-05-07 17:49 | 51.11612 | 11.01424 | 24989 ft | 417 kts | 348° |
| 2026-05-07 17:49 | 51.14445 | 11.00489 | 24618 ft | 414 kts | 344° |
| 2026-05-07 17:49 | 51.17175 | 10.99044 | 24260 ft | 413 kts | 340° |
| 2026-05-07 17:49 | 51.19843 | 10.97575 | 23906 ft | 411 kts | 340° |
| 2026-05-07 17:50 | 51.22540 | 10.96090 | 23537 ft | 409 kts | 340° |
| 2026-05-07 17:50 | 51.25226 | 10.94608 | 23118 ft | 407 kts | 340° |
| 2026-05-07 17:50 | 51.27894 | 10.93132 | 22702 ft | 405 kts | 340° |
| 2026-05-07 17:50 | 51.30548 | 10.91657 | 22299 ft | 403 kts | 340° |
| 2026-05-07 17:51 | 51.33186 | 10.90185 | 22039 ft | 401 kts | 340° |
| 2026-05-07 17:51 | 51.35815 | 10.88715 | 22076 ft | 401 kts | 340° |
| 2026-05-07 17:51 | 51.38448 | 10.87245 | 22069 ft | 401 kts | 340° |
| 2026-05-07 17:51 | 51.41081 | 10.85775 | 22068 ft | 401 kts | 340° |
| 2026-05-07 17:52 | 51.43719 | 10.84303 | 22067 ft | 401 kts | 340° |
| 2026-05-07 17:52 | 51.46356 | 10.82826 | 22086 ft | 401 kts | 340° |
| 2026-05-07 17:52 | 51.48956 | 10.81368 | 22071 ft | 401 kts | 340° |
| 2026-05-07 17:52 | 51.51592 | 10.79887 | 22073 ft | 402 kts | 340° |
| 2026-05-07 17:53 | 51.54230 | 10.78405 | 22076 ft | 402 kts | 340° |
| 2026-05-07 17:53 | 51.56869 | 10.76920 | 22078 ft | 401 kts | 340° |
| 2026-05-07 17:53 | 51.59502 | 10.75438 | 22075 ft | 401 kts | 339° |
| 2026-05-07 17:53 | 51.62136 | 10.73951 | 21897 ft | 398 kts | 339° |
| 2026-05-07 17:54 | 51.64741 | 10.72478 | 21311 ft | 396 kts | 339° |
| 2026-05-07 17:54 | 51.67294 | 10.71033 | 20745 ft | 393 kts | 340° |
| 2026-05-07 17:54 | 51.69866 | 10.69575 | 20215 ft | 391 kts | 340° |
| 2026-05-07 17:54 | 51.72420 | 10.68130 | 19688 ft | 388 kts | 340° |
| 2026-05-07 17:55 | 51.74957 | 10.66694 | 19158 ft | 385 kts | 340° |
| 2026-05-07 17:55 | 51.77454 | 10.65163 | 18643 ft | 382 kts | 333° |
| 2026-05-07 17:55 | 51.79619 | 10.62745 | 18105 ft | 378 kts | 315° |
| 2026-05-07 17:55 | 51.81288 | 10.59506 | 17525 ft | 374 kts | 306° |
| 2026-05-07 17:56 | 51.82847 | 10.56144 | 16949 ft | 372 kts | 306° |
| 2026-05-07 17:56 | 51.84388 | 10.52809 | 16400 ft | 369 kts | 306° |
| 2026-05-07 17:56 | 51.85917 | 10.49498 | 15853 ft | 366 kts | 307° |
| 2026-05-07 17:56 | 51.87413 | 10.46255 | 15328 ft | 363 kts | 307° |
| 2026-05-07 17:57 | 51.88917 | 10.42989 | 14800 ft | 361 kts | 307° |
| 2026-05-07 17:57 | 51.89929 | 10.40790 | 14445 ft | 359 kts | 307° |
| 2026-05-07 17:57 | 51.91890 | 10.36515 | 13768 ft | 355 kts | 307° |
| 2026-05-07 17:57 | 51.93358 | 10.33316 | 13189 ft | 353 kts | 307° |
| 2026-05-07 17:58 | 51.94818 | 10.30138 | 12612 ft | 350 kts | 307° |
| 2026-05-07 17:58 | 51.96262 | 10.26990 | 12046 ft | 347 kts | 307° |
| 2026-05-07 17:58 | 51.97699 | 10.23853 | 11476 ft | 345 kts | 307° |
| 2026-05-07 17:58 | 51.99099 | 10.20787 | 10926 ft | 342 kts | 307° |
| 2026-05-07 17:59 | 52.00508 | 10.17693 | 10374 ft | 340 kts | 307° |
| 2026-05-07 17:59 | 52.01906 | 10.14615 | 10127 ft | 339 kts | 307° |
| 2026-05-07 17:59 | 52.03274 | 10.11608 | 10077 ft | 321 kts | 307° |
| 2026-05-07 17:59 | 52.04562 | 10.08783 | 10089 ft | 302 kts | 307° |
| 2026-05-07 18:00 | 52.05779 | 10.06105 | 10095 ft | 290 kts | 307° |
| 2026-05-07 18:00 | 52.06971 | 10.03481 | 10089 ft | 287 kts | 307° |
| 2026-05-07 18:00 | 52.08158 | 10.00869 | 10094 ft | 287 kts | 307° |
| 2026-05-07 18:00 | 52.09324 | 9.98295 | 10096 ft | 287 kts | 307° |
| 2026-05-07 18:01 | 52.10507 | 9.95680 | 10096 ft | 287 kts | 307° |
| 2026-05-07 18:01 | 52.11686 | 9.93069 | 10098 ft | 287 kts | 306° |
| 2026-05-07 18:01 | 52.12865 | 9.90451 | 10097 ft | 287 kts | 306° |
| 2026-05-07 18:01 | 52.14043 | 9.87834 | 10096 ft | 287 kts | 306° |
| 2026-05-07 18:02 | 52.16389 | 9.82625 | 9606 ft | 284 kts | 307° |
| 2026-05-07 18:02 | 52.17551 | 9.80039 | 9184 ft | 283 kts | 307° |
| 2026-05-07 18:02 | 52.18696 | 9.77495 | 8774 ft | 281 kts | 307° |
| 2026-05-07 18:03 | 52.19847 | 9.74932 | 8355 ft | 280 kts | 307° |
| 2026-05-07 18:03 | 52.20994 | 9.72371 | 7938 ft | 279 kts | 307° |
| 2026-05-07 18:03 | 52.22135 | 9.69822 | 7522 ft | 278 kts | 307° |
| 2026-05-07 18:03 | 52.23268 | 9.67284 | 7120 ft | 276 kts | 307° |
| 2026-05-07 18:04 | 52.24394 | 9.64763 | 6701 ft | 274 kts | 307° |
| 2026-05-07 18:04 | 52.25516 | 9.62252 | 6273 ft | 273 kts | 307° |
| 2026-05-07 18:04 | 52.26633 | 9.59752 | 5826 ft | 272 kts | 307° |
| 2026-05-07 18:04 | 52.27743 | 9.57262 | 5376 ft | 271 kts | 308° |
| 2026-05-07 18:05 | 52.28834 | 9.54813 | 5052 ft | 270 kts | 308° |
| 2026-05-07 18:05 | 52.29941 | 9.52322 | 5014 ft | 271 kts | 308° |
| 2026-05-07 18:05 | 52.31053 | 9.49819 | 5016 ft | 272 kts | 308° |
| 2026-05-07 18:05 | 52.32192 | 9.47350 | 5004 ft | 272 kts | 314° |
| 2026-05-07 18:06 | 52.33586 | 9.45324 | 4799 ft | 263 kts | 323° |
| 2026-05-07 18:06 | 52.34948 | 9.43528 | 4625 ft | 243 kts | 324° |
| 2026-05-07 18:06 | 52.36245 | 9.41827 | 4206 ft | 236 kts | 324° |
| 2026-05-07 18:06 | 52.37520 | 9.40164 | 3713 ft | 234 kts | 324° |
| 2026-05-07 18:07 | 52.38790 | 9.38511 | 3218 ft | 232 kts | 324° |
| 2026-05-07 18:07 | 52.40042 | 9.36879 | 3006 ft | 231 kts | 324° |
| 2026-05-07 18:07 | 52.41305 | 9.35238 | 3004 ft | 233 kts | 324° |
| 2026-05-07 18:07 | 52.42696 | 9.34049 | 3010 ft | 228 kts | 352° |
| 2026-05-07 18:08 | 52.44252 | 9.34034 | 3004 ft | 221 kts | 19° |
| 2026-05-07 18:08 | 52.45513 | 9.35335 | 3007 ft | 215 kts | 52° |
| 2026-05-07 18:08 | 52.46304 | 9.37406 | 3010 ft | 214 kts | 64° |
| 2026-05-07 18:08 | 52.46673 | 9.39743 | 3006 ft | 213 kts | 90° |
| 2026-05-07 18:09 | 52.46354 | 9.42094 | 3005 ft | 208 kts | 109° |
| 2026-05-07 18:09 | 52.46099 | 9.44300 | 2978 ft | 190 kts | 92° |
| 2026-05-07 18:09 | 52.46051 | 9.46443 | 2789 ft | 187 kts | 91° |
| 2026-05-07 18:09 | 52.46002 | 9.48561 | 2560 ft | 185 kts | 92° |
| 2026-05-07 18:10 | 52.45951 | 9.50597 | 2313 ft | 177 kts | 92° |
| 2026-05-07 18:10 | 52.45901 | 9.52547 | 2112 ft | 166 kts | 92° |
| 2026-05-07 18:10 | 52.45854 | 9.54353 | 1865 ft | 148 kts | 92° |
| 2026-05-07 18:10 | 52.45813 | 9.55942 | 1666 ft | 132 kts | 92° |
| 2026-05-07 18:11 | 52.45775 | 9.57389 | 1483 ft | 125 kts | 93° |
| 2026-05-07 18:11 | 52.45750 | 9.58323 | 1373 ft | 123 kts | 93° |
| 2026-05-07 18:11 | 52.45701 | 9.60180 | 1139 ft | 122 kts | 92° |
| 2026-05-07 18:11 | 52.45664 | 9.61574 | 970 ft | 123 kts | 92° |
| 2026-05-07 18:12 | 52.45626 | 9.62974 | 787 ft | 123 kts | 93° |
| 2026-05-07 18:12 | 52.45590 | 9.64388 | 576 ft | 124 kts | 94° |
| 2026-05-07 18:12 | 52.45547 | 9.65799 | 413 ft | 124 kts | 94° |
| 2026-05-07 18:12 | 52.45513 | 9.67191 | 296 ft | 124 kts | 95° |
| 2026-05-07 18:13 | 52.45465 | 9.68566 | 183 ft | 109 kts | 92° |
| 2026-05-07 18:13 | 52.45451 | 9.69290 | 184 ft | 47 kts | 92° |
| 2026-05-07 18:13 | 52.45438 | 9.69793 | 182 ft | 43 kts | 92° |
| 2026-05-07 18:13 | 52.45424 | 9.70281 | 181 ft | 42 kts | 92° |
| 2026-05-07 18:14 | 52.45438 | 9.70662 | 183 ft | 21 kts | 38° |
| 2026-05-07 18:14 | 52.45514 | 9.70665 | 179 ft | 0 kts | 357° |
| 2026-05-07 18:14 | 52.45515 | 9.70665 | 179 ft | 1 kts | 357° |
| 2026-05-07 18:15 | 52.45553 | 9.70672 | 179 ft | 10 kts | 4° |
| 2026-05-07 18:15 | 52.45635 | 9.70636 | 179 ft | 13 kts | 311° |
| 2026-05-07 18:15 | 52.45653 | 9.70482 | 179 ft | 17 kts | 273° |
| 2026-05-07 18:15 | 52.45659 | 9.70258 | 179 ft | 23 kts | 272° |
| 2026-05-07 18:16 | 52.45667 | 9.69980 | 179 ft | 25 kts | 272° |
| 2026-05-07 18:16 | 52.45675 | 9.69714 | 179 ft | 22 kts | 273° |
| 2026-05-07 18:16 | 52.45706 | 9.69495 | 179 ft | 19 kts | 320° |
| 2026-05-07 18:16 | 52.45759 | 9.69341 | 179 ft | 15 kts | 274° |
| 2026-05-07 18:17 | 52.45798 | 9.69259 | 179 ft | 7 kts | 32° |
| 2026-05-07 18:17 | 52.45835 | 9.69306 | 179 ft | 7 kts | 45° |
| 2026-05-07 18:17 | 52.45847 | 9.69326 | 179 ft | 0 kts | 47° |